Time;durP1;ratioP1;P1;durP2;ratioP2;P2;SDS_P1;SDS_P2;PMS_P1;PMS_P2;Temp;Humidity;BMP_temperature;BMP_pressure;BME280_temperature;BME280_humidity;BME280_pressure;Samples;Min_cycle;Max_cycle;Signal;HPM_P1;HPM_P2
2021/07/08 00:01:41;;;;;;;13.43;9.38;;;13.10;99.90;;;;;;4994652;28;20038;-84
2021/07/08 00:04:06;;;;;;;13.07;7.70;;;13.20;99.90;;;;;;4992314;28;20030;-84
2021/07/08 00:06:32;;;;;;;14.63;7.60;;;13.10;99.90;;;;;;5007605;28;20038;-84
2021/07/08 00:08:58;;;;;;;10.93;7.22;;;13.10;99.90;;;;;;4992373;28;20479;-84
2021/07/08 00:11:25;;;;;;;10.93;7.40;;;13.00;99.90;;;;;;5017861;28;20034;-83
2021/07/08 00:13:51;;;;;;;14.10;8.82;;;12.90;99.90;;;;;;5027058;28;20175;-84
2021/07/08 00:16:16;;;;;;;9.73;8.68;;;12.80;99.90;;;;;;5027082;28;20077;-84
2021/07/08 00:18:42;;;;;;;14.27;9.00;;;12.70;99.90;;;;;;5027014;28;20505;-84
2021/07/08 00:21:08;;;;;;;8.75;7.65;;;12.60;99.90;;;;;;5005570;28;20458;-84
2021/07/08 00:23:34;;;;;;;12.32;8.10;;;12.60;99.90;;;;;;4992092;28;20098;-84
2021/07/08 00:25:59;;;;;;;8.20;6.95;;;12.50;99.90;;;;;;4992270;28;20030;-84
2021/07/08 00:28:25;;;;;;;9.70;6.88;;;12.50;99.90;;;;;;4992221;28;20042;-83
2021/07/08 00:30:51;;;;;;;11.68;8.35;;;12.40;99.90;;;;;;5007303;28;20126;-84
2021/07/08 00:33:18;;;;;;;10.10;7.90;;;12.40;99.90;;;;;;4990614;28;20030;-84
2021/07/08 00:35:44;;;;;;;9.93;7.95;;;12.30;99.90;;;;;;5007490;28;20138;-85
2021/07/08 00:38:09;;;;;;;9.18;7.07;;;12.30;99.90;;;;;;5011783;28;20100;-84
2021/07/08 00:40:35;;;;;;;12.45;7.80;;;12.20;99.90;;;;;;5026931;28;20033;-84
2021/07/08 00:43:01;;;;;;;8.38;7.07;;;12.20;99.90;;;;;;5023298;28;20033;-84
2021/07/08 00:45:27;;;;;;;13.88;8.70;;;12.20;99.90;;;;;;5000880;28;20058;-84
2021/07/08 00:47:54;;;;;;;10.65;8.15;;;12.20;99.90;;;;;;4992058;28;20474;-84
2021/07/08 00:50:29;;;;;;;10.95;7.25;;;12.20;99.90;;;;;;4991961;28;20043;-85
2021/07/08 00:52:55;;;;;;;7.53;6.80;;;12.20;99.90;;;;;;5003347;28;20026;-84
2021/07/08 00:55:21;;;;;;;11.65;7.65;;;12.30;99.90;;;;;;5026724;28;20056;-84
2021/07/08 00:57:52;;;;;;;10.90;7.35;;;12.30;99.90;;;;;;5011441;28;20080;-84
2021/07/08 01:00:21;;;;;;;12.95;8.48;;;12.30;99.90;;;;;;5011625;28;20061;-84
2021/07/08 01:02:48;;;;;;;8.65;7.47;;;12.40;99.90;;;;;;5020056;28;20034;-84
2021/07/08 01:05:16;;;;;;;10.23;7.15;;;12.50;99.90;;;;;;4995441;28;20026;-84
2021/07/08 01:07:44;;;;;;;6.68;5.97;;;12.50;99.90;;;;;;5010547;28;20710;-84
2021/07/08 01:10:10;;;;;;;6.25;5.55;;;12.50;99.90;;;;;;4995404;28;20398;-84
2021/07/08 01:12:35;;;;;;;7.75;6.10;;;12.50;99.90;;;;;;5013463;28;20018;-84
2021/07/08 01:15:01;;;;;;;10.02;6.10;;;12.50;99.90;;;;;;5014751;28;20168;-84
2021/07/08 01:17:27;;;;;;;8.70;6.95;;;12.60;99.90;;;;;;5014972;28;20034;-84
2021/07/08 01:19:52;;;;;;;6.85;5.90;;;12.50;99.90;;;;;;5014778;28;20033;-84
2021/07/08 01:22:18;;;;;;;10.23;7.18;;;12.40;99.90;;;;;;5029664;28;20487;-83
2021/07/08 01:24:43;;;;;;;10.95;8.23;;;12.40;99.90;;;;;;5012437;28;20045;-83
2021/07/08 01:27:11;;;;;;;12.18;8.18;;;12.30;99.90;;;;;;4995090;28;20033;-84
2021/07/08 01:29:37;;;;;;;8.85;6.93;;;12.30;99.90;;;;;;5010003;28;20026;-83
2021/07/08 01:32:03;;;;;;;11.07;8.40;;;12.20;99.90;;;;;;4993525;28;20041;-84
2021/07/08 01:34:29;;;;;;;11.68;7.78;;;12.20;99.90;;;;;;4995448;28;20486;-84
2021/07/08 01:36:54;;;;;;;9.38;6.55;;;12.20;99.90;;;;;;4994952;28;20022;-84
2021/07/08 01:39:20;;;;;;;8.90;7.50;;;12.10;99.90;;;;;;4994962;28;20062;-84
2021/07/08 01:41:46;;;;;;;11.15;6.75;;;12.10;99.90;;;;;;4994652;28;20030;-84
2021/07/08 01:44:11;;;;;;;11.00;8.88;;;12.00;99.90;;;;;;5002270;28;20096;-84
2021/07/08 01:46:38;;;;;;;10.40;9.32;;;12.00;99.90;;;;;;5014330;28;20033;-84
2021/07/08 01:49:03;;;;;;;9.43;7.22;;;11.90;99.90;;;;;;5014277;28;20157;-83
2021/07/08 01:51:32;;;;;;;9.90;7.18;;;11.90;99.90;;;;;;5013937;28;20470;-83
2021/07/08 01:53:59;;;;;;;11.55;8.68;;;11.90;99.90;;;;;;5010558;28;20446;-84
2021/07/08 01:56:25;;;;;;;12.55;10.10;;;12.00;99.90;;;;;;4994532;28;20081;-83
2021/07/08 01:58:52;;;;;;;10.90;9.23;;;12.00;99.90;;;;;;4994364;28;20033;-84
2021/07/08 02:01:19;;;;;;;10.88;9.27;;;12.00;99.90;;;;;;4994292;28;20450;-84
2021/07/08 02:03:44;;;;;;;13.80;9.75;;;12.00;99.90;;;;;;4993127;28;20037;-84
2021/07/08 02:06:10;;;;;;;10.30;9.02;;;11.90;99.90;;;;;;5011153;28;20394;-83
2021/07/08 02:08:36;;;;;;;13.70;9.45;;;12.00;99.90;;;;;;5013889;28;20034;-84
2021/07/08 02:11:04;;;;;;;10.95;9.60;;;11.90;99.90;;;;;;5013748;28;20033;-83
2021/07/08 02:13:30;;;;;;;15.02;9.45;;;11.80;99.90;;;;;;5012676;28;20022;-84
2021/07/08 02:15:56;;;;;;;11.98;9.15;;;11.80;99.90;;;;;;4999791;28;20109;-84
2021/07/08 02:18:21;;;;;;;11.40;8.73;;;11.80;99.90;;;;;;4994212;28;20054;-84
2021/07/08 02:20:47;;;;;;;14.93;10.48;;;11.70;99.90;;;;;;4994013;28;20062;-83
2021/07/08 02:23:12;;;;;;;12.85;10.48;;;11.70;99.90;;;;;;4993805;28;20088;-83
2021/07/08 02:25:38;;;;;;;11.25;9.32;;;11.60;99.90;;;;;;5001681;28;20030;-83
2021/07/08 02:28:03;;;;;;;12.60;10.25;;;11.60;99.90;;;;;;5020044;28;20030;-84
2021/07/08 02:30:29;;;;;;;11.85;10.43;;;11.60;99.90;;;;;;5008926;28;20022;-84
2021/07/08 02:32:56;;;;;;;13.15;11.80;;;11.50;99.90;;;;;;4993582;28;20162;-84
2021/07/08 02:35:24;;;;;;;10.75;9.05;;;11.50;99.90;;;;;;4996009;28;20069;-84
2021/07/08 02:37:52;;;;;;;7.75;6.85;;;11.40;99.90;;;;;;5013380;28;20466;-83
2021/07/08 02:40:22;;;;;;;11.27;6.95;;;11.40;99.90;;;;;;5013317;28;20033;-84
2021/07/08 02:42:51;;;;;;;10.55;7.20;;;11.40;99.90;;;;;;5013040;28;20425;-84
2021/07/08 02:45:28;;;;;;;9.65;8.75;;;11.40;99.90;;;;;;5013117;28;20022;-83
2021/07/08 02:47:55;;;;;;;18.00;11.70;;;11.30;99.90;;;;;;4993624;28;20041;-85
2021/07/08 02:50:22;;;;;;;11.75;10.50;;;11.30;99.90;;;;;;4993499;28;20022;-85
2021/07/08 02:52:49;;;;;;;12.32;11.00;;;11.30;99.90;;;;;;5008311;28;20026;-84
2021/07/08 02:55:15;;;;;;;14.25;10.73;;;11.30;99.90;;;;;;4993320;28;20026;-84
2021/07/08 02:57:45;;;;;;;16.15;11.85;;;11.30;99.90;;;;;;4993675;28;20030;-83
2021/07/08 03:00:13;;;;;;;20.70;14.95;;;11.30;99.90;;;;;;4993421;28;20026;-84
2021/07/08 03:02:39;;;;;;;14.70;12.77;;;11.30;99.90;;;;;;5008221;28;20398;-84
2021/07/08 03:05:05;;;;;;;16.38;13.57;;;11.30;99.90;;;;;;4993219;28;20386;-84
2021/07/08 03:07:31;;;;;;;16.77;14.35;;;11.40;99.90;;;;;;5004362;28;20029;-84
2021/07/08 03:09:56;;;;;;;18.00;15.27;;;11.30;99.90;;;;;;5012687;28;20384;-85
2021/07/08 03:12:22;;;;;;;11.80;10.57;;;11.40;99.90;;;;;;5012523;28;20363;-84
2021/07/08 03:14:48;;;;;;;11.00;9.80;;;11.40;99.90;;;;;;5011419;28;20028;-84
2021/07/08 03:17:13;;;;;;;10.90;9.13;;;11.40;99.90;;;;;;5011096;28;20025;-84
2021/07/08 03:19:39;;;;;;;8.82;7.93;;;11.40;99.90;;;;;;4995381;28;20076;-85
2021/07/08 03:22:05;;;;;;;13.15;11.73;;;11.50;99.90;;;;;;4992754;28;20117;-84
2021/07/08 03:24:30;;;;;;;16.90;12.05;;;11.40;99.90;;;;;;5008050;28;20030;-84
2021/07/08 03:26:56;;;;;;;16.92;13.02;;;11.50;99.90;;;;;;5008651;28;20033;-84
2021/07/08 03:29:22;;;;;;;13.13;11.73;;;11.50;99.90;;;;;;5012494;28;20041;-85
2021/07/08 03:31:47;;;;;;;16.67;10.13;;;11.60;99.90;;;;;;5012136;28;20030;-84
2021/07/08 03:34:13;;;;;;;11.95;10.02;;;11.50;99.90;;;;;;5012301;28;20045;-84
2021/07/08 03:36:39;;;;;;;11.52;10.30;;;11.50;99.90;;;;;;5012395;28;20033;-85
2021/07/08 03:39:05;;;;;;;11.43;10.25;;;11.40;99.90;;;;;;5008613;28;20041;-84
2021/07/08 03:41:31;;;;;;;14.77;10.80;;;11.50;99.90;;;;;;5027520;28;20032;-84
2021/07/08 03:43:57;;;;;;;12.35;11.07;;;11.50;99.90;;;;;;5012168;28;20029;-84
2021/07/08 03:46:22;;;;;;;14.82;11.63;;;11.50;99.90;;;;;;5012315;28;20025;-85
2021/07/08 03:48:48;;;;;;;12.15;10.45;;;11.50;99.90;;;;;;5001456;28;20112;-84
2021/07/08 03:51:13;;;;;;;12.15;10.77;;;11.60;99.90;;;;;;4992331;28;20100;-85
2021/07/08 03:53:39;;;;;;;13.90;11.18;;;11.60;99.90;;;;;;4992402;28;20037;-84
2021/07/08 03:56:04;;;;;;;14.00;11.68;;;11.70;99.90;;;;;;4992489;28;20026;-84
2021/07/08 03:58:30;;;;;;;16.17;11.93;;;11.80;99.90;;;;;;4997501;28;20101;-84
2021/07/08 04:00:56;;;;;;;12.68;11.27;;;11.80;99.90;;;;;;5012058;28;20034;-84
2021/07/08 04:03:21;;;;;;;13.80;12.25;;;11.80;99.90;;;;;;5011810;28;20034;-85
2021/07/08 04:05:48;;;;;;;14.40;12.50;;;11.90;99.90;;;;;;5027204;28;20054;-85
2021/07/08 04:08:15;;;;;;;11.48;10.07;;;11.90;99.90;;;;;;5011488;28;20516;-85
2021/07/08 04:10:41;;;;;;;11.32;9.93;;;12.00;99.90;;;;;;4992311;28;20084;-84
2021/07/08 04:13:10;;;;;;;12.55;10.68;;;12.00;99.90;;;;;;4992134;28;20046;-84
2021/07/08 04:15:36;;;;;;;12.48;11.13;;;12.10;99.90;;;;;;4992296;28;20101;-84
2021/07/08 04:18:03;;;;;;;12.40;11.05;;;12.10;99.90;;;;;;4992355;28;20110;-85
2021/07/08 04:20:30;;;;;;;13.35;10.63;;;12.20;99.90;;;;;;5007281;28;20030;-84
2021/07/08 04:22:56;;;;;;;11.45;9.85;;;12.30;99.90;;;;;;4990711;28;20034;-84
2021/07/08 04:25:22;;;;;;;17.13;10.60;;;12.30;99.90;;;;;;5007293;28;20033;-84
2021/07/08 04:27:48;;;;;;;11.90;10.48;;;12.40;99.90;;;;;;4992255;28;20026;-84
2021/07/08 04:30:17;;;;;;;14.05;11.10;;;12.40;99.90;;;;;;5015322;28;20040;-84
2021/07/08 04:32:43;;;;;;;13.88;10.15;;;12.50;99.90;;;;;;5021745;28;20402;-84
2021/07/08 04:35:10;;;;;;;13.25;10.00;;;12.60;99.90;;;;;;5010355;28;20177;-84
2021/07/08 04:37:41;;;;;;;10.00;9.00;;;12.70;99.90;;;;;;5013366;28;20018;-84
2021/07/08 04:40:10;;;;;;;11.10;9.02;;;12.80;99.90;;;;;;5008496;28;20037;-84
2021/07/08 04:42:36;;;;;;;9.98;8.98;;;12.80;99.90;;;;;;4995773;28;20684;-85
2021/07/08 04:45:02;;;;;;;12.68;10.10;;;13.00;99.90;;;;;;4994562;28;20039;-84
2021/07/08 04:47:27;;;;;;;12.05;10.85;;;13.10;99.90;;;;;;4995929;28;20030;-84
2021/07/08 04:49:53;;;;;;;24.33;17.40;;;13.30;99.90;;;;;;5012642;28;20117;-84
2021/07/08 04:52:18;;;;;;;20.13;14.55;;;13.40;99.90;;;;;;5030331;28;20018;-85
2021/07/08 04:54:44;;;;;;;22.05;18.10;;;13.70;99.90;;;;;;5015235;28;20405;-84
2021/07/08 04:57:10;;;;;;;23.58;19.77;;;13.90;99.90;;;;;;5015254;28;20030;-84
2021/07/08 04:59:35;;;;;;;19.10;15.70;;;14.10;99.90;;;;;;5015254;28;20052;-84
2021/07/08 05:02:01;;;;;;;32.22;19.65;;;14.30;99.90;;;;;;5011510;28;20072;-84
2021/07/08 05:04:26;;;;;;;18.48;16.05;;;14.50;99.90;;;;;;4997570;28;20117;-84
2021/07/08 05:06:52;;;;;;;20.98;16.92;;;14.70;99.90;;;;;;4995537;28;20566;-78
2021/07/08 05:09:17;;;;;;;21.55;16.27;;;14.90;99.90;;;;;;5010516;28;20513;-85
2021/07/08 05:11:43;;;;;;;18.25;15.23;;;15.10;99.90;;;;;;5010305;28;20022;-84
2021/07/08 05:14:09;;;;;;;21.58;16.45;;;15.20;99.90;;;;;;5021430;28;20022;-85
2021/07/08 05:16:35;;;;;;;21.83;14.48;;;15.30;99.90;;;;;;5014926;28;20029;-85
2021/07/08 05:19:00;;;;;;;21.17;14.18;;;15.30;99.90;;;;;;5014864;28;20026;-84
2021/07/08 05:21:26;;;;;;;13.20;11.20;;;15.40;99.90;;;;;;5014457;28;20157;-84
2021/07/08 05:23:57;;;;;;;13.23;11.73;;;15.40;99.90;;;;;;5008347;28;20061;-84
2021/07/08 05:26:28;;;;;;;12.73;10.88;;;15.50;99.90;;;;;;4993946;28;20043;-85
2021/07/08 05:28:53;;;;;;;15.13;11.63;;;15.60;99.90;;;;;;4995226;28;20138;-85
2021/07/08 05:31:19;;;;;;;18.35;13.13;;;15.70;99.90;;;;;;4994680;28;20113;-85
2021/07/08 05:33:45;;;;;;;14.57;11.23;;;15.90;99.90;;;;;;5012114;28;20036;-86
2021/07/08 05:36:10;;;;;;;14.25;11.75;;;16.00;99.90;;;;;;5013342;28;20081;-85
2021/07/08 05:38:36;;;;;;;19.70;12.80;;;16.10;99.90;;;;;;5029685;28;20435;-87
2021/07/08 05:41:01;;;;;;;12.13;10.40;;;16.10;99.90;;;;;;5014435;28;20037;-85
2021/07/08 05:43:27;;;;;;;12.45;11.10;;;16.20;99.90;;;;;;5029381;28;20061;-85
2021/07/08 05:45:52;;;;;;;13.85;10.07;;;16.40;99.90;;;;;;4997231;28;20030;-86
2021/07/08 05:48:19;;;;;;;15.60;9.50;;;16.20;99.90;;;;;;5008955;28;20030;-86
2021/07/08 05:50:45;;;;;;;13.95;10.13;;;16.20;99.90;;;;;;4994476;28;20445;-86
2021/07/08 05:53:10;;;;;;;13.48;9.90;;;16.30;99.90;;;;;;5009553;28;20050;-86
2021/07/08 05:55:36;;;;;;;11.90;9.52;;;16.40;99.90;;;;;;5002258;28;20030;-86
2021/07/08 05:58:02;;;;;;;15.15;9.90;;;16.40;99.90;;;;;;5029339;28;20021;-86
2021/07/08 06:00:27;;;;;;;14.13;9.27;;;16.40;99.90;;;;;;5013811;28;20401;-85
2021/07/08 06:02:53;;;;;;;13.98;9.25;;;16.40;99.90;;;;;;5012077;28;20037;-86
2021/07/08 06:05:18;;;;;;;13.55;9.48;;;16.50;99.90;;;;;;5011981;28;20030;-85
2021/07/08 06:07:44;;;;;;;15.35;9.55;;;16.50;99.90;;;;;;5013725;28;20398;-85
2021/07/08 06:10:10;;;;;;;23.23;19.40;;;16.50;99.90;;;;;;5013602;28;20497;-85
2021/07/08 06:12:40;;;;;;;26.88;22.10;;;16.80;99.90;;;;;;5013645;28;20061;-85
2021/07/08 06:15:06;;;;;;;28.23;18.20;;;17.10;99.90;;;;;;5012763;28;20033;-85
2021/07/08 06:17:31;;;;;;;18.77;12.05;;;17.20;99.90;;;;;;4994141;28;20022;-84
2021/07/08 06:19:57;;;;;;;11.50;9.18;;;17.30;99.90;;;;;;5009171;28;20071;-85
2021/07/08 06:22:23;;;;;;;19.83;12.73;;;17.40;99.90;;;;;;5008754;28;20041;-83
2021/07/08 06:24:49;;;;;;;13.18;10.18;;;17.40;99.90;;;;;;5009037;28;20022;-83
2021/07/08 06:27:14;;;;;;;31.75;13.43;;;17.60;99.90;;;;;;5007544;28;20033;-84
2021/07/08 06:29:40;;;;;;;16.85;11.52;;;17.70;99.90;;;;;;5013424;28;20060;-83
2021/07/08 06:32:06;;;;;;;21.10;9.88;;;17.80;99.90;;;;;;5028422;28;20026;-83
2021/07/08 06:34:31;;;;;;;19.88;11.43;;;17.90;99.90;;;;;;5013379;28;20032;-84
2021/07/08 06:36:57;;;;;;;18.38;10.18;;;18.10;99.90;;;;;;5018216;28;20118;-84
2021/07/08 06:39:22;;;;;;;15.85;10.13;;;18.30;99.90;;;;;;4993895;28;20553;-82
2021/07/08 06:41:48;;;;;;;19.38;7.65;;;18.40;99.90;;;;;;4993655;28;20040;-84
2021/07/08 06:44:13;;;;;;;15.80;7.90;;;18.50;99.90;;;;;;4993467;28;20105;-83
2021/07/08 06:46:39;;;;;;;11.90;6.88;;;18.60;99.90;;;;;;4998193;28;20025;-82
2021/07/08 06:49:05;;;;;;;15.68;7.28;;;18.70;99.90;;;;;;5013196;28;20076;-84
2021/07/08 06:51:30;;;;;;;11.45;7.82;;;18.80;99.90;;;;;;5010636;28;20035;-83
2021/07/08 06:53:56;;;;;;;10.35;7.40;;;18.90;99.90;;;;;;4992329;28;20023;-83
2021/07/08 06:56:23;;;;;;;11.25;5.85;;;18.90;99.90;;;;;;4993409;28;20479;-84
2021/07/08 06:58:49;;;;;;;12.93;6.45;;;19.00;99.90;;;;;;5011799;28;20114;-84
2021/07/08 07:01:15;;;;;;;13.02;6.72;;;19.10;99.90;;;;;;5027815;28;20108;-81
2021/07/08 07:03:41;;;;;;;12.93;7.10;;;19.20;99.90;;;;;;5012953;28;20105;-82
2021/07/08 07:06:06;;;;;;;10.40;4.78;;;19.20;99.90;;;;;;5012693;28;20532;-83
2021/07/08 07:08:33;;;;;;;14.13;6.53;;;19.40;99.90;;;;;;5013415;28;20042;-83
2021/07/08 07:10:59;;;;;;;9.73;5.88;;;19.60;99.90;;;;;;5008121;28;20113;-83
2021/07/08 07:13:25;;;;;;;13.60;6.82;;;19.60;99.90;;;;;;5007986;28;20039;-82
2021/07/08 07:15:50;;;;;;;10.57;6.57;;;19.80;99.90;;;;;;5008266;28;20022;-82
2021/07/08 07:18:16;;;;;;;9.98;6.38;;;19.80;99.90;;;;;;5002241;28;20028;-83
2021/07/08 07:20:41;;;;;;;10.73;5.70;;;20.00;99.90;;;;;;5012634;28;20061;-83
2021/07/08 07:23:07;;;;;;;6.90;5.22;;;20.00;99.90;;;;;;5012396;28;20121;-83
2021/07/08 07:25:39;;;;;;;15.27;5.97;;;20.30;99.90;;;;;;5012457;28;20478;-83
2021/07/08 07:28:05;;;;;;;8.75;4.22;;;20.20;99.90;;;;;;5022479;28;20034;-83
2021/07/08 07:30:30;;;;;;;9.07;4.35;;;20.40;99.90;;;;;;5007893;28;20081;-83
2021/07/08 07:32:56;;;;;;;9.35;4.60;;;20.30;99.90;;;;;;5007788;28;20551;-83
2021/07/08 07:35:22;;;;;;;4.50;3.47;;;20.50;99.90;;;;;;5007737;28;20022;-84
2021/07/08 07:37:51;;;;;;;13.38;5.57;;;20.30;99.90;;;;;;4992782;28;20430;-83
2021/07/08 07:40:18;;;;;;;13.82;4.75;;;20.20;99.90;;;;;;5007917;28;20084;-83
2021/07/08 07:42:43;;;;;;;9.68;3.80;;;20.30;99.90;;;;;;4992365;28;20486;-83
2021/07/08 07:45:10;;;;;;;11.38;5.80;;;20.30;99.90;;;;;;4992600;28;20092;-84
2021/07/08 07:47:36;;;;;;;9.50;4.15;;;20.40;99.90;;;;;;4991320;28;20030;-83
2021/07/08 07:50:04;;;;;;;19.67;5.45;;;20.50;99.90;;;;;;5000268;28;20034;-83
2021/07/08 07:52:29;;;;;;;8.70;4.35;;;20.50;99.90;;;;;;4992419;28;20383;-83
2021/07/08 07:54:55;;;;;;;12.60;5.05;;;20.80;99.90;;;;;;4996670;28;20024;-81
2021/07/08 07:57:20;;;;;;;8.93;3.97;;;20.90;99.90;;;;;;5008703;28;20037;-82
2021/07/08 07:59:46;;;;;;;7.82;3.45;;;21.00;99.90;;;;;;5012035;28;20030;-83
2021/07/08 08:02:15;;;;;;;6.25;3.08;;;21.40;99.90;;;;;;5024207;28;20034;-82
2021/07/08 08:10:14;;;;;;;10.40;3.15;;;21.60;99.90;;;;;;4992651;28;20111;-82
2021/07/08 08:12:40;;;;;;;6.53;3.00;;;21.50;99.90;;;;;;5007404;28;20082;-82
2021/07/08 08:15:08;;;;;;;14.38;4.18;;;21.50;99.90;;;;;;4996671;28;20023;-83
2021/07/08 08:17:38;;;;;;;7.20;3.45;;;21.50;99.90;;;;;;4996345;28;20034;-81
2021/07/08 08:20:05;;;;;;;7.38;3.08;;;21.60;99.90;;;;;;4992298;28;20030;-82
2021/07/08 08:22:30;;;;;;;10.85;4.03;;;21.80;99.90;;;;;;5022715;28;20029;-83
2021/07/08 08:24:56;;;;;;;9.65;3.20;;;22.00;99.90;;;;;;5011758;28;20045;-82
2021/07/08 08:27:22;;;;;;;8.35;3.25;;;22.50;99.90;;;;;;5028491;28;20034;-81
2021/07/08 08:29:48;;;;;;;16.05;3.95;;;23.00;99.90;;;;;;5012007;28;20030;-81
2021/07/08 08:32:13;;;;;;;11.32;3.08;;;23.40;99.90;;;;;;5021219;28;20021;-81
2021/07/08 08:34:39;;;;;;;7.50;3.08;;;23.60;99.90;;;;;;5018319;28;20448;-81
2021/07/08 08:37:05;;;;;;;6.68;2.88;;;24.00;99.90;;;;;;5018751;28;20486;-82
2021/07/08 08:39:31;;;;;;;10.10;3.63;;;24.20;99.90;;;;;;5021446;28;20057;-82
2021/07/08 08:41:56;;;;;;;10.07;2.90;;;24.50;99.90;;;;;;5010571;28;20041;-81
2021/07/08 08:44:22;;;;;;;8.18;3.17;;;24.60;99.90;;;;;;5012174;28;20574;-81
2021/07/08 08:46:51;;;;;;;13.50;3.30;;;24.80;99.90;;;;;;5022106;28;20069;-81
2021/07/08 08:49:16;;;;;;;7.57;2.67;;;24.80;99.90;;;;;;5019212;28;20026;-82
2021/07/08 08:51:43;;;;;;;12.52;3.05;;;24.80;99.90;;;;;;5018362;28;20088;-82
2021/07/08 08:54:08;;;;;;;12.02;2.53;;;24.80;99.90;;;;;;5016763;28;20044;-80
2021/07/08 08:56:34;;;;;;;9.25;2.67;;;24.90;99.90;;;;;;5023108;28;20502;-80
2021/07/08 08:59:00;;;;;;;8.30;2.53;;;24.80;99.90;;;;;;5040445;28;20017;-81
2021/07/08 09:01:25;;;;;;;5.18;2.13;;;25.00;99.90;;;;;;5019466;28;20033;-82
2021/07/08 09:03:51;;;;;;;6.63;2.75;;;25.10;99.90;;;;;;5011939;28;20037;-82
2021/07/08 09:06:17;;;;;;;6.38;2.20;;;25.10;99.90;;;;;;5027120;28;20452;-83
2021/07/08 09:08:45;;;;;;;8.23;2.08;;;25.10;99.90;;;;;;5028080;28;20037;-83
2021/07/08 09:11:23;;;;;;;5.78;1.90;;;25.20;99.90;;;;;;5018850;28;20159;-82
2021/07/08 09:14:03;;;;;;;8.02;2.20;;;25.10;99.90;;;;;;5011899;28;20026;-82
2021/07/08 09:16:40;;;;;;;7.30;2.72;;;25.20;99.90;;;;;;5013724;28;20034;-81
2021/07/08 09:19:17;;;;;;;15.20;2.92;;;25.30;99.90;;;;;;5009737;28;20108;-79
2021/07/08 09:21:52;;;;;;;7.45;2.85;;;25.20;99.90;;;;;;5012830;28;20501;-79
2021/07/08 09:24:20;;;;;;;14.63;2.95;;;25.10;99.90;;;;;;5020692;28;20037;-79
2021/07/08 09:26:53;;;;;;;9.63;2.83;;;25.40;99.90;;;;;;5021970;28;20521;-81
2021/07/08 09:29:20;;;;;;;9.32;1.92;;;25.70;99.90;;;;;;5028693;28;20029;-80
2021/07/08 09:31:52;;;;;;;7.85;2.60;;;25.70;99.90;;;;;;5021317;28;20022;-81
2021/07/08 09:34:20;;;;;;;7.25;1.80;;;25.70;99.90;;;;;;5010283;28;20562;-80
2021/07/08 09:36:49;;;;;;;13.07;3.22;;;25.80;99.90;;;;;;5009788;28;20022;-80
2021/07/08 09:39:15;;;;;;;5.85;2.00;;;25.50;99.90;;;;;;5009198;28;20022;-80
2021/07/08 09:41:49;;;;;;;20.90;2.75;;;25.50;99.90;;;;;;4994849;28;20507;-80
2021/07/08 09:44:20;;;;;;;12.73;2.58;;;25.80;99.90;;;;;;5006881;28;20116;-80
2021/07/08 09:46:45;;;;;;;8.07;2.13;;;26.00;99.90;;;;;;5029815;28;20049;-80
2021/07/08 09:49:11;;;;;;;9.13;2.03;;;26.60;99.90;;;;;;5014549;28;20490;-80
2021/07/08 09:51:41;;;;;;;14.15;2.75;;;26.90;99.90;;;;;;5014018;28;20026;-80
2021/07/08 09:54:19;;;;;;;10.18;2.45;;;27.00;99.90;;;;;;5010867;28;20026;-80
2021/07/08 09:56:49;;;;;;;9.43;2.25;;;27.30;99.90;;;;;;5029644;28;20397;-81
2021/07/08 09:59:16;;;;;;;6.97;1.95;;;27.50;99.90;;;;;;5014292;28;20029;-80
2021/07/08 10:01:43;;;;;;;10.60;2.17;;;27.80;99.90;;;;;;5013985;28;20053;-80
2021/07/08 10:04:09;;;;;;;4.78;2.00;;;28.10;99.90;;;;;;5023614;28;20038;-81
2021/07/08 10:06:36;;;;;;;10.15;2.38;;;28.20;99.90;;;;;;4994643;28;20034;-80
2021/07/08 10:09:04;;;;;;;8.40;2.00;;;27.80;99.90;;;;;;4994643;28;20030;-80
2021/07/08 10:11:30;;;;;;;11.43;2.55;;;27.70;99.90;;;;;;4994211;28;20027;-80
2021/07/08 10:13:59;;;;;;;6.82;2.10;;;27.80;99.90;;;;;;5009585;28;20026;-81
2021/07/08 10:16:26;;;;;;;6.78;1.85;;;28.10;99.90;;;;;;4994370;28;20015;-80
2021/07/08 10:18:54;;;;;;;5.82;1.70;;;28.50;99.90;;;;;;4991330;28;20026;-81
2021/07/08 10:21:19;;;;;;;7.20;1.85;;;28.80;99.90;;;;;;5008167;28;20131;-81
2021/07/08 10:23:45;;;;;;;9.32;2.03;;;29.00;99.90;;;;;;5011800;28;20842;-80
2021/07/08 10:26:11;;;;;;;6.50;2.03;;;29.30;99.90;;;;;;5013928;28;20087;-81
2021/07/08 10:28:43;;;;;;;9.98;2.40;;;29.30;99.90;;;;;;5011364;28;20052;-80
2021/07/08 10:31:13;;;;;;;9.35;1.98;;;29.20;99.90;;;;;;5005700;28;20061;-80
2021/07/08 10:33:38;;;;;;;12.27;2.40;;;28.80;99.90;;;;;;5013815;28;20025;-82
2021/07/08 10:36:04;;;;;;;6.70;1.55;;;28.40;99.90;;;;;;5017415;28;20157;-81
2021/07/08 10:38:34;;;;;;;6.10;1.65;;;28.20;99.90;;;;;;5019534;28;20033;-81
2021/07/08 10:41:11;;;;;;;6.13;1.50;;;28.50;99.90;;;;;;5010564;28;20083;-81
2021/07/08 10:43:39;;;;;;;3.78;1.60;;;28.80;99.90;;;;;;5011767;28;20034;-82
2021/07/08 10:46:06;;;;;;;7.80;1.75;;;28.90;99.90;;;;;;5009068;28;20061;-81
2021/07/08 10:48:42;;;;;;;11.77;2.17;;;29.10;99.90;;;;;;5012301;28;20046;-80
2021/07/08 10:51:14;;;;;;;6.13;1.90;;;29.20;99.90;;;;;;5011732;28;20058;-81
2021/07/08 10:53:42;;;;;;;8.25;1.73;;;28.80;99.90;;;;;;5018748;28;20028;-81
2021/07/08 10:56:09;;;;;;;11.10;1.75;;;28.60;99.90;;;;;;5017454;28;20026;-82
2021/07/08 10:58:52;;;;;;;10.85;1.60;;;28.50;99.90;;;;;;5020766;28;20109;-81
2021/07/08 11:01:25;;;;;;;7.22;1.70;;;28.60;99.90;;;;;;5011207;28;20053;-81
2021/07/08 11:03:51;;;;;;;3.88;1.42;;;28.60;99.90;;;;;;5010481;28;20616;-81
2021/07/08 11:06:24;;;;;;;6.70;1.52;;;28.60;99.90;;;;;;5010861;28;20026;-81
2021/07/08 11:08:51;;;;;;;3.63;1.60;;;28.90;99.90;;;;;;5015608;28;20032;-81
2021/07/08 11:11:23;;;;;;;6.03;1.58;;;28.80;99.90;;;;;;5032200;28;20450;-81
2021/07/08 11:13:56;;;;;;;7.85;1.83;;;28.80;99.90;;;;;;5013872;28;20018;-81
2021/07/08 11:16:43;;;;;;;12.38;2.42;;;28.70;99.90;;;;;;5013270;28;20018;-82
2021/07/08 11:19:13;;;;;;;4.20;1.40;;;29.00;99.90;;;;;;5033223;28;20495;-82
2021/07/08 11:22:17;;;;;;;15.52;2.10;;;29.60;99.90;;;;;;5011606;28;20424;-80
2021/07/08 11:24:48;;;;;;;7.35;2.15;;;29.50;99.90;;;;;;5023738;28;20581;-81
2021/07/08 11:27:21;;;;;;;6.82;2.00;;;29.60;99.90;;;;;;5020413;28;20112;-81
2021/07/08 11:29:56;;;;;;;6.47;1.58;;;29.40;99.90;;;;;;5014508;28;20501;-82
2021/07/08 11:32:39;;;;;;;8.00;1.27;;;29.10;99.90;;;;;;5011643;28;20026;-81
2021/07/08 11:35:12;;;;;;;4.32;1.60;;;29.00;99.90;;;;;;5009839;28;20025;-82
2021/07/08 11:37:42;;;;;;;;;;;28.60;99.90;;;;;;5017205;28;20040;-81
2021/07/08 11:40:16;;;;;;;4.57;1.35;;;28.20;99.90;;;;;;5027515;28;19906;-81
2021/07/08 11:42:44;;;;;;;8.48;1.85;;;28.00;99.90;;;;;;5012333;28;20087;-79
2021/07/08 11:45:14;;;;;;;5.82;1.60;;;27.60;99.90;;;;;;5012398;28;20022;-80
2021/07/08 11:47:48;;;;;;;7.38;2.17;;;26.80;99.90;;;;;;5022744;28;20483;-80
2021/07/08 11:50:28;;;;;;;8.95;2.05;;;26.20;99.90;;;;;;5007830;28;20030;-80
2021/07/08 11:53:08;;;;;;;6.90;2.40;;;25.80;99.90;;;;;;5007852;28;20026;-80
2021/07/08 11:55:34;;;;;;;5.97;2.08;;;25.50;99.90;;;;;;4992634;28;20069;-79
2021/07/08 11:58:02;;;;;;;7.53;2.17;;;25.50;99.90;;;;;;4995105;28;20032;-79
2021/07/08 12:00:46;;;;;;;6.30;2.25;;;25.60;99.90;;;;;;4992566;28;20096;-80
2021/07/08 12:03:26;;;;;;;5.72;2.03;;;25.50;99.90;;;;;;5007445;28;20031;-79
2021/07/08 12:06:09;;;;;;;8.57;3.22;;;25.40;99.90;;;;;;4992459;28;20453;-79
2021/07/08 12:08:38;;;;;;;8.23;3.00;;;25.10;99.90;;;;;;5009982;28;20033;-80
2021/07/08 12:11:11;;;;;;;10.63;3.42;;;25.00;99.90;;;;;;5011048;28;20037;-80
2021/07/08 12:13:55;;;;;;;10.48;3.05;;;24.90;99.90;;;;;;5011717;28;20032;-80
2021/07/08 12:16:32;;;;;;;8.98;2.70;;;25.10;99.90;;;;;;5027119;28;20482;-81
2021/07/08 12:19:18;;;;;;;11.60;2.90;;;26.10;99.90;;;;;;4999147;28;20034;-80
2021/07/08 12:21:46;;;;;;;9.02;2.95;;;26.80;99.90;;;;;;5012364;28;20029;-80
2021/07/08 12:24:25;;;;;;;7.75;2.58;;;27.10;99.90;;;;;;5009473;28;20068;-80
2021/07/08 12:26:54;;;;;;;8.30;2.28;;;27.90;99.90;;;;;;5016943;28;20033;-81
2021/07/08 12:29:26;;;;;;;5.07;2.00;;;27.90;99.90;;;;;;5020370;28;20069;-81
2021/07/08 12:31:56;;;;;;;11.00;1.90;;;27.10;99.90;;;;;;5008449;28;20047;-81
2021/07/08 12:34:24;;;;;;;3.58;1.17;;;26.30;99.90;;;;;;5019622;28;20037;-81
2021/07/08 12:36:51;;;;;;;4.43;1.05;;;25.70;99.90;;;;;;5021924;28;20095;-81
2021/07/08 12:39:23;;;;;;;4.05;1.67;;;26.80;99.90;;;;;;5022663;28;20030;-81
2021/07/08 12:41:49;;;;;;;9.18;1.67;;;27.10;99.90;;;;;;5019695;28;20156;-81
2021/07/08 12:44:16;;;;;;;5.55;2.00;;;26.70;99.90;;;;;;5017242;28;20121;-80
2021/07/08 12:46:42;;;;;;;6.38;1.90;;;26.30;99.90;;;;;;5046455;28;20499;-81